Time;durP1;ratioP1;P1;durP2;ratioP2;P2;SDS_P1;SDS_P2;PMS_P1;PMS_P2;Temp;Humidity;BMP_temperature;BMP_pressure;BME280_temperature;BME280_humidity;BME280_pressure;Samples;Min_cycle;Max_cycle;Signal;HPM_P1;HPM_P2
2024/04/06 00:01:30;;;;;;;2.90;0.80;;;14.90;99.90;;;;;;4972670;28;20034;-77
2024/04/06 00:03:56;;;;;;;4.18;0.80;;;14.90;99.90;;;;;;4987793;28;20042;-78
2024/04/06 00:06:21;;;;;;;2.28;0.82;;;14.90;99.90;;;;;;4972529;28;20037;-78
2024/04/06 00:08:50;;;;;;;3.05;0.82;;;14.90;99.90;;;;;;4967654;28;20034;-78
2024/04/06 00:11:16;;;;;;;2.03;0.88;;;14.90;99.90;;;;;;4956282;28;20480;-78
2024/04/06 00:13:42;;;;;;;2.75;1.00;;;14.90;99.90;;;;;;4983115;28;20034;-78
2024/04/06 00:16:08;;;;;;;2.88;1.05;;;14.80;99.90;;;;;;4966380;28;20038;-77
2024/04/06 00:18:35;;;;;;;1.65;0.77;;;14.80;99.90;;;;;;4982673;28;20685;-77
2024/04/06 00:21:01;;;;;;;2.50;0.85;;;14.70;99.90;;;;;;4966159;28;20018;-78
2024/04/06 00:23:28;;;;;;;3.28;0.82;;;14.80;99.90;;;;;;4970036;28;20035;-77
2024/04/06 00:25:53;;;;;;;3.10;0.80;;;14.80;99.90;;;;;;4988147;28;20414;-78
2024/04/06 00:28:19;;;;;;;1.58;0.68;;;14.70;99.90;;;;;;4985243;28;20034;-78
2024/04/06 00:30:45;;;;;;;1.85;0.85;;;14.70;99.90;;;;;;4968678;28;20125;-78
2024/04/06 00:33:10;;;;;;;1.40;0.80;;;14.70;99.90;;;;;;4968627;28;20030;-78
2024/04/06 00:35:36;;;;;;;2.55;1.17;;;14.70;99.90;;;;;;4956746;28;20046;-78
2024/04/06 00:38:02;;;;;;;1.20;0.70;;;14.60;99.90;;;;;;4982361;28;20050;-78
2024/04/06 00:40:28;;;;;;;2.42;0.90;;;14.60;99.90;;;;;;4969381;28;20065;-77
2024/04/06 00:42:53;;;;;;;2.58;0.95;;;14.60;99.90;;;;;;4997965;28;20141;-78
2024/04/06 00:45:19;;;;;;;2.50;0.88;;;14.60;99.90;;;;;;4970704;28;20034;-78
2024/04/06 00:47:44;;;;;;;3.83;1.05;;;14.60;99.90;;;;;;4985449;28;20034;-78
2024/04/06 00:50:10;;;;;;;1.02;0.90;;;14.60;99.90;;;;;;4993892;28;20027;-79
2024/04/06 00:52:37;;;;;;;1.13;0.98;;;14.60;99.90;;;;;;4974269;28;20061;-78
2024/04/06 00:55:03;;;;;;;4.35;1.10;;;14.60;99.90;;;;;;4988845;28;20034;-78
2024/04/06 00:57:29;;;;;;;4.35;1.08;;;14.60;99.90;;;;;;4989703;28;20526;-78
2024/04/06 00:59:55;;;;;;;1.67;1.00;;;14.60;99.90;;;;;;5008972;28;20401;-78
2024/04/06 01:02:20;;;;;;;2.75;1.10;;;14.60;99.90;;;;;;5001528;28;20055;-78
2024/04/06 01:04:46;;;;;;;4.68;1.40;;;14.70;99.90;;;;;;4972204;28;20100;-78
2024/04/06 01:07:11;;;;;;;3.15;1.25;;;14.60;99.90;;;;;;4987627;28;20069;-78
2024/04/06 01:09:37;;;;;;;3.45;1.02;;;14.60;99.90;;;;;;4959167;28;20031;-78
2024/04/06 01:12:02;;;;;;;3.83;1.25;;;14.60;99.90;;;;;;5006358;28;20113;-77
2024/04/06 01:14:28;;;;;;;2.95;1.38;;;14.60;99.90;;;;;;4999962;28;20124;-77
2024/04/06 01:16:53;;;;;;;2.55;1.15;;;14.70;99.90;;;;;;4991800;28;20062;-78
2024/04/06 01:19:19;;;;;;;2.20;0.75;;;14.70;99.90;;;;;;5008861;28;20035;-78
2024/04/06 01:21:45;;;;;;;1.08;0.95;;;14.70;99.90;;;;;;4997551;28;20092;-78
2024/04/06 01:24:26;;;;;;;1.75;0.98;;;14.70;99.90;;;;;;4991893;28;20034;-78
2024/04/06 01:26:53;;;;;;;2.25;0.75;;;14.70;99.90;;;;;;4997190;28;20030;-78
2024/04/06 01:29:19;;;;;;;2.00;0.82;;;14.70;99.90;;;;;;4977692;28;20034;-78
2024/04/06 01:31:44;;;;;;;3.65;1.10;;;14.60;99.90;;;;;;4995133;28;20458;-78
2024/04/06 01:34:10;;;;;;;2.55;0.90;;;14.60;99.90;;;;;;5011125;28;20041;-78
2024/04/06 01:36:36;;;;;;;1.98;1.00;;;14.70;99.90;;;;;;4984839;28;20074;-78
2024/04/06 01:39:02;;;;;;;3.70;0.75;;;14.70;99.90;;;;;;5001664;28;20084;-78
2024/04/06 01:41:28;;;;;;;2.60;0.70;;;14.70;99.90;;;;;;4988064;28;20416;-78
2024/04/06 01:43:53;;;;;;;2.30;1.05;;;14.80;99.90;;;;;;4976442;28;20034;-78
2024/04/06 01:46:19;;;;;;;2.78;1.00;;;14.80;99.90;;;;;;4975955;28;20091;-78
2024/04/06 01:48:45;;;;;;;1.35;0.77;;;14.80;99.90;;;;;;4991014;28;20045;-78
2024/04/06 01:51:11;;;;;;;1.52;0.75;;;14.80;99.90;;;;;;4970806;28;20399;-78
2024/04/06 01:53:36;;;;;;;2.38;1.20;;;14.80;99.90;;;;;;4985182;28;20040;-78
2024/04/06 01:56:02;;;;;;;2.28;0.98;;;14.80;99.90;;;;;;4972532;28;20534;-78
2024/04/06 01:58:27;;;;;;;3.08;1.00;;;14.80;99.90;;;;;;4986504;28;20039;-78
2024/04/06 02:00:53;;;;;;;1.05;0.82;;;14.80;99.90;;;;;;4973016;28;20026;-77
2024/04/06 02:03:18;;;;;;;2.63;1.13;;;14.80;99.90;;;;;;4957518;28;20026;-77
2024/04/06 02:05:44;;;;;;;2.45;1.05;;;14.70;99.90;;;;;;4966512;28;20062;-78
2024/04/06 02:08:09;;;;;;;1.20;0.93;;;14.70;99.90;;;;;;4973606;28;20084;-77
2024/04/06 02:10:35;;;;;;;3.45;1.20;;;14.80;99.90;;;;;;4967609;28;20492;-78
2024/04/06 02:13:00;;;;;;;2.72;1.10;;;14.80;99.90;;;;;;4974828;28;20045;-78
2024/04/06 02:15:26;;;;;;;1.92;1.23;;;14.80;99.90;;;;;;4985785;28;20077;-77
2024/04/06 02:17:52;;;;;;;1.55;1.00;;;14.70;99.90;;;;;;4970165;28;20046;-77
2024/04/06 02:20:18;;;;;;;4.20;1.10;;;14.70;99.90;;;;;;4971297;28;20030;-78
2024/04/06 02:22:43;;;;;;;2.80;0.82;;;14.60;99.90;;;;;;4958759;28;20027;-77
2024/04/06 02:25:09;;;;;;;3.60;1.20;;;14.60;99.90;;;;;;4989443;28;20032;-77
2024/04/06 02:27:35;;;;;;;3.70;0.93;;;14.60;99.90;;;;;;4955050;28;20398;-77
2024/04/06 02:30:01;;;;;;;4.20;1.20;;;14.60;99.90;;;;;;4971818;28;20558;-77
2024/04/06 02:32:26;;;;;;;2.47;1.02;;;14.70;99.90;;;;;;4955568;28;20427;-77
2024/04/06 02:34:52;;;;;;;2.05;1.15;;;14.60;99.90;;;;;;4972415;28;20046;-78
2024/04/06 02:37:18;;;;;;;3.20;1.23;;;14.50;99.90;;;;;;4970550;28;20125;-78
2024/04/06 02:39:43;;;;;;;2.35;1.23;;;14.60;99.90;;;;;;4973863;28;20562;-77
2024/04/06 02:42:09;;;;;;;5.68;1.23;;;14.50;99.90;;;;;;4988296;28;20396;-78
2024/04/06 02:44:34;;;;;;;3.55;1.20;;;14.50;99.90;;;;;;4952188;28;20065;-78
2024/04/06 02:47:00;;;;;;;4.07;1.02;;;14.50;99.90;;;;;;4969128;28;20438;-78
2024/04/06 02:49:26;;;;;;;2.53;1.00;;;14.50;99.90;;;;;;4984998;28;20560;-78
2024/04/06 02:51:51;;;;;;;3.60;1.00;;;14.40;99.90;;;;;;4988805;28;20026;-77
2024/04/06 02:54:17;;;;;;;3.00;1.10;;;14.40;99.90;;;;;;4956824;28;20050;-78
2024/04/06 02:56:43;;;;;;;3.20;1.00;;;14.30;99.90;;;;;;4971495;28;20030;-77
2024/04/06 02:59:08;;;;;;;2.13;0.93;;;14.30;99.90;;;;;;4952165;28;20042;-78
2024/04/06 03:01:34;;;;;;;2.03;1.10;;;14.30;99.90;;;;;;4970645;28;20058;-78
2024/04/06 03:03:59;;;;;;;2.33;1.13;;;14.20;99.90;;;;;;4969535;28;20050;-78
2024/04/06 03:06:25;;;;;;;3.33;1.25;;;14.20;99.90;;;;;;4969763;28;20049;-78
2024/04/06 03:08:50;;;;;;;1.67;1.00;;;14.10;99.90;;;;;;4971621;28;20030;-78
2024/04/06 03:11:16;;;;;;;3.05;1.02;;;14.10;99.90;;;;;;4972590;28;20030;-77
2024/04/06 03:13:41;;;;;;;3.78;0.98;;;14.00;99.90;;;;;;4970071;28;20038;-78
2024/04/06 03:16:07;;;;;;;2.50;1.20;;;14.00;99.90;;;;;;4982156;28;20030;-78
2024/04/06 03:18:32;;;;;;;2.22;1.27;;;13.90;99.90;;;;;;4970430;28;20447;-77
2024/04/06 03:20:58;;;;;;;3.85;1.17;;;13.90;99.90;;;;;;4985007;28;20110;-78
2024/04/06 03:23:23;;;;;;;4.88;1.30;;;13.90;99.90;;;;;;4969918;28;20187;-78
2024/04/06 03:25:49;;;;;;;2.47;1.58;;;13.80;99.90;;;;;;4987595;28;20444;-77
2024/04/06 03:28:19;;;;;;;3.08;1.30;;;13.80;99.90;;;;;;4954008;28;20081;-77
2024/04/06 03:30:44;;;;;;;1.45;0.88;;;13.80;99.90;;;;;;4969787;28;20026;-78
2024/04/06 03:33:10;;;;;;;3.05;1.35;;;13.80;99.90;;;;;;4955202;28;20030;-78
2024/04/06 03:35:41;;;;;;;1.80;1.00;;;13.90;99.90;;;;;;4968690;28;20093;-78
2024/04/06 03:38:07;;;;;;;2.05;1.48;;;13.80;99.90;;;;;;5008529;28;20092;-77
2024/04/06 03:40:32;;;;;;;2.67;1.40;;;13.80;99.90;;;;;;4985833;28;20038;-77
2024/04/06 03:42:59;;;;;;;3.25;1.27;;;13.80;99.90;;;;;;4985785;28;20476;-78
2024/04/06 03:45:26;;;;;;;2.15;1.02;;;13.80;99.90;;;;;;4986244;28;20030;-78
2024/04/06 03:47:51;;;;;;;3.13;1.23;;;13.70;99.90;;;;;;4987819;28;20034;-77
2024/04/06 03:50:17;;;;;;;5.78;1.70;;;13.60;99.90;;;;;;4968776;28;20085;-78
2024/04/06 03:52:43;;;;;;;6.95;1.35;;;13.60;99.90;;;;;;4969671;28;20093;-78
2024/04/06 03:55:08;;;;;;;2.55;1.35;;;13.50;99.90;;;;;;4988011;28;20065;-78
2024/04/06 03:57:34;;;;;;;5.63;3.00;;;13.50;99.90;;;;;;4986310;28;20259;-77
2024/04/06 04:00:00;;;;;;;2.65;1.30;;;13.50;99.90;;;;;;4988216;28;20034;-78
2024/04/06 04:02:25;;;;;;;3.08;1.15;;;13.40;99.90;;;;;;4984519;28;20054;-78
2024/04/06 04:04:51;;;;;;;2.72;1.40;;;13.30;99.90;;;;;;4958534;28;20033;-78
2024/04/06 04:07:16;;;;;;;4.65;1.10;;;13.30;99.90;;;;;;4974278;28;20041;-78
2024/04/06 04:09:42;;;;;;;2.05;1.20;;;13.20;99.90;;;;;;4988101;28;20042;-78
2024/04/06 04:12:08;;;;;;;1.75;1.30;;;13.20;99.90;;;;;;4972335;28;20033;-77
2024/04/06 04:14:33;;;;;;;4.60;1.75;;;13.10;99.90;;;;;;4985899;28;20106;-78
2024/04/06 04:16:59;;;;;;;4.35;1.33;;;13.20;99.90;;;;;;4973650;28;20088;-78
2024/04/06 04:19:24;;;;;;;3.55;1.17;;;13.20;99.90;;;;;;4987780;28;20042;-78
2024/04/06 04:21:51;;;;;;;2.88;1.08;;;13.10;99.90;;;;;;4971602;28;20430;-77
2024/04/06 04:24:18;;;;;;;1.95;1.10;;;13.10;99.90;;;;;;4987719;28;20614;-78
2024/04/06 04:26:44;;;;;;;2.17;0.90;;;13.10;99.90;;;;;;4974124;28;20026;-78
2024/04/06 04:29:09;;;;;;;1.13;1.00;;;13.20;99.90;;;;;;4956382;28;20031;-77
2024/04/06 04:31:35;;;;;;;3.97;0.88;;;13.10;99.90;;;;;;4989322;28;20114;-77
2024/04/06 04:34:00;;;;;;;2.65;1.40;;;13.00;99.90;;;;;;4990710;28;20129;-77
2024/04/06 04:36:26;;;;;;;3.30;1.42;;;13.00;99.90;;;;;;4978810;28;20030;-77
2024/04/06 04:38:52;;;;;;;1.23;1.13;;;13.00;99.90;;;;;;4988485;28;20508;-77
2024/04/06 04:41:17;;;;;;;2.35;1.08;;;13.00;99.90;;;;;;4974876;28;20041;-77
2024/04/06 04:43:43;;;;;;;3.00;1.23;;;12.90;99.90;;;;;;4971075;28;20054;-77
2024/04/06 04:46:09;;;;;;;5.43;1.10;;;12.90;99.90;;;;;;4988313;28;20088;-77
2024/04/06 04:48:53;;;;;;;1.70;0.90;;;12.90;99.90;;;;;;4989602;28;20050;-77
2024/04/06 04:51:22;;;;;;;5.10;1.65;;;12.90;99.90;;;;;;4988620;28;20027;-77
2024/04/06 04:53:51;;;;;;;3.20;1.02;;;12.80;99.90;;;;;;4990293;28;20190;-77
2024/04/06 04:56:17;;;;;;;2.40;1.30;;;12.80;99.90;;;;;;4976564;28;20388;-78
2024/04/06 04:58:43;;;;;;;2.72;1.27;;;12.80;99.90;;;;;;4976425;28;20480;-77
2024/04/06 05:01:08;;;;;;;2.20;1.02;;;12.70;99.90;;;;;;4971767;28;20069;-77
2024/04/06 05:03:34;;;;;;;1.75;1.00;;;12.70;99.90;;;;;;4971855;28;20080;-77
2024/04/06 05:06:00;;;;;;;3.03;1.02;;;12.70;99.90;;;;;;4975064;28;20030;-78
2024/04/06 05:08:25;;;;;;;4.60;1.58;;;12.70;99.90;;;;;;4977325;28;20033;-77
2024/04/06 05:10:52;;;;;;;2.03;1.20;;;12.70;99.90;;;;;;4989753;28;20065;-78
2024/04/06 05:13:18;;;;;;;1.73;1.13;;;12.70;99.90;;;;;;4975221;28;20113;-77
2024/04/06 05:15:52;;;;;;;1.88;1.25;;;12.70;99.90;;;;;;4959967;28;20548;-78
2024/04/06 05:18:17;;;;;;;4.10;1.02;;;12.80;99.90;;;;;;4967678;28;20034;-78
2024/04/06 05:20:53;;;;;;;4.60;1.73;;;12.70;99.90;;;;;;4974291;28;20049;-77
2024/04/06 05:23:18;;;;;;;2.13;1.17;;;12.70;99.90;;;;;;4969753;28;20035;-77
2024/04/06 05:25:45;;;;;;;4.03;1.10;;;12.80;99.90;;;;;;4983845;28;20085;-78
2024/04/06 05:28:11;;;;;;;3.60;1.35;;;12.90;99.90;;;;;;4970004;28;20031;-78
2024/04/06 05:30:36;;;;;;;3.95;1.52;;;12.90;99.90;;;;;;4973834;28;20050;-78
2024/04/06 05:33:02;;;;;;;3.97;1.45;;;12.90;99.90;;;;;;4974689;28;20034;-78
2024/04/06 05:35:28;;;;;;;3.05;1.17;;;12.90;99.90;;;;;;4971381;28;20046;-78
2024/04/06 05:37:53;;;;;;;2.13;1.48;;;13.00;99.90;;;;;;4988966;28;20030;-78
2024/04/06 05:40:19;;;;;;;2.72;1.48;;;13.10;99.90;;;;;;4986846;28;20497;-78
2024/04/06 05:42:45;;;;;;;2.00;1.20;;;13.10;99.90;;;;;;4985636;28;20106;-78
2024/04/06 05:45:11;;;;;;;2.15;1.17;;;13.10;99.90;;;;;;4971311;28;20520;-77
2024/04/06 05:47:36;;;;;;;5.88;1.25;;;13.20;99.90;;;;;;4989269;28;20034;-76
2024/04/06 05:50:02;;;;;;;4.18;1.10;;;13.30;99.90;;;;;;4990403;28;20026;-78
2024/04/06 05:52:28;;;;;;;1.55;1.40;;;13.30;99.90;;;;;;4955645;28;20031;-78
2024/04/06 05:54:53;;;;;;;2.33;1.40;;;13.40;99.90;;;;;;4988448;28;20117;-77
2024/04/06 05:57:19;;;;;;;2.10;1.17;;;13.50;99.90;;;;;;4987726;28;20518;-78
2024/04/06 05:59:44;;;;;;;2.15;1.15;;;13.60;99.90;;;;;;4987863;28;20054;-77
2024/04/06 06:02:10;;;;;;;1.92;1.30;;;13.70;99.90;;;;;;4985214;28;20122;-77
2024/04/06 06:04:35;;;;;;;2.28;1.05;;;13.80;99.90;;;;;;4974185;28;20045;-78
2024/04/06 06:07:01;;;;;;;2.97;1.27;;;13.90;99.90;;;;;;4992324;28;20034;-77
2024/04/06 06:09:27;;;;;;;7.18;1.50;;;13.90;99.90;;;;;;4971233;28;20049;-78
2024/04/06 06:11:53;;;;;;;2.50;1.20;;;14.00;99.90;;;;;;4972520;28;20085;-78
2024/04/06 06:14:19;;;;;;;6.10;1.30;;;14.00;99.90;;;;;;4969858;28;20519;-76
2024/04/06 06:16:45;;;;;;;3.17;1.50;;;14.10;99.90;;;;;;4972047;28;20034;-76
2024/04/06 06:19:10;;;;;;;2.10;1.30;;;14.20;99.90;;;;;;4985269;28;20030;-76
2024/04/06 06:21:36;;;;;;;3.13;1.30;;;14.20;99.90;;;;;;4956094;28;20018;-76
2024/04/06 06:24:03;;;;;;;4.07;1.42;;;14.30;99.90;;;;;;4987148;28;20102;-77
2024/04/06 06:26:28;;;;;;;2.00;1.40;;;14.30;99.90;;;;;;4971985;28;20069;-76
2024/04/06 06:28:54;;;;;;;5.35;1.23;;;14.30;99.90;;;;;;4953759;28;20031;-77
2024/04/06 06:31:20;;;;;;;2.25;1.40;;;14.40;99.90;;;;;;4954904;28;20061;-78
2024/04/06 06:33:45;;;;;;;3.13;1.50;;;14.50;99.90;;;;;;4955249;28;20030;-77
2024/04/06 06:36:14;;;;;;;3.90;1.40;;;14.50;99.90;;;;;;4985852;28;20050;-77
2024/04/06 06:38:40;;;;;;;5.07;1.70;;;14.60;99.90;;;;;;4973812;28;20065;-77
2024/04/06 06:41:08;;;;;;;3.55;2.03;;;14.70;99.90;;;;;;4956974;28;20460;-77
2024/04/06 06:43:33;;;;;;;1.70;1.33;;;14.90;99.90;;;;;;4970183;28;20481;-78
2024/04/06 06:45:59;;;;;;;2.58;1.17;;;15.10;99.90;;;;;;4969352;28;20025;-77
2024/04/06 06:48:24;;;;;;;8.85;1.90;;;15.20;99.90;;;;;;4971933;28;20066;-78
2024/04/06 06:50:50;;;;;;;3.60;1.10;;;15.30;99.90;;;;;;4984371;28;20057;-77
2024/04/06 06:53:16;;;;;;;3.63;1.45;;;15.50;99.90;;;;;;4969564;28;20075;-77
2024/04/06 06:55:41;;;;;;;2.45;1.30;;;15.50;99.90;;;;;;4964483;28;20027;-78
2024/04/06 06:58:07;;;;;;;2.75;1.60;;;15.60;99.90;;;;;;4967464;28;20048;-78
2024/04/06 07:00:33;;;;;;;3.42;1.48;;;15.70;99.90;;;;;;4955875;28;20026;-77
2024/04/06 07:02:58;;;;;;;2.55;1.45;;;15.80;99.90;;;;;;4986660;28;20041;-79
2024/04/06 07:05:24;;;;;;;1.83;0.93;;;15.80;99.90;;;;;;4986184;28;20040;-77
2024/04/06 07:07:54;;;;;;;6.38;1.33;;;15.80;99.90;;;;;;4983666;28;20130;-77
2024/04/06 07:10:19;;;;;;;1.98;1.20;;;15.90;99.90;;;;;;4971074;28;20496;-78
2024/04/06 07:12:45;;;;;;;1.63;1.20;;;15.90;99.90;;;;;;4974028;28;20036;-78
2024/04/06 07:15:10;;;;;;;2.47;1.30;;;16.00;99.90;;;;;;4969899;28;20034;-77
2024/04/06 07:17:36;;;;;;;1.73;1.27;;;16.10;99.90;;;;;;4959272;28;20034;-77
2024/04/06 07:20:01;;;;;;;1.90;1.15;;;16.20;99.90;;;;;;4971866;28;20054;-77
2024/04/06 07:22:27;;;;;;;3.65;1.35;;;16.20;99.90;;;;;;4956953;28;20042;-77
2024/04/06 07:24:52;;;;;;;1.40;1.20;;;16.30;99.90;;;;;;4967751;28;20027;-78
2024/04/06 07:27:20;;;;;;;1.85;1.23;;;16.30;99.90;;;;;;4967437;28;20034;-78
2024/04/06 07:29:46;;;;;;;3.60;1.67;;;16.30;99.90;;;;;;4988963;28;20121;-78
2024/04/06 07:32:11;;;;;;;3.15;1.50;;;16.40;99.90;;;;;;4955584;28;20118;-78
2024/04/06 07:34:37;;;;;;;2.10;1.23;;;16.50;99.90;;;;;;4971954;28;20041;-77
2024/04/06 07:37:03;;;;;;;3.65;1.35;;;16.60;99.90;;;;;;4972496;28;20038;-78
2024/04/06 07:39:28;;;;;;;1.67;0.95;;;16.70;99.90;;;;;;4983103;28;20034;-78
2024/04/06 07:41:54;;;;;;;3.40;1.80;;;16.80;99.90;;;;;;4984438;28;20030;-78
2024/04/06 07:44:20;;;;;;;2.33;1.35;;;17.00;99.90;;;;;;4956341;28;20124;-78
2024/04/06 07:46:45;;;;;;;2.38;1.08;;;17.20;99.90;;;;;;4969247;28;20038;-77
2024/04/06 07:49:11;;;;;;;2.17;1.30;;;17.40;99.90;;;;;;4958774;28;20391;-78
2024/04/06 07:51:37;;;;;;;4.00;0.95;;;17.50;99.90;;;;;;4954104;28;20120;-79
2024/04/06 07:54:04;;;;;;;4.13;1.25;;;17.60;99.90;;;;;;4963694;28;20042;-79
2024/04/06 07:56:29;;;;;;;1.42;1.00;;;17.60;99.90;;;;;;4974109;28;20034;-79
2024/04/06 07:58:55;;;;;;;3.42;1.23;;;17.70;99.90;;;;;;4966439;28;20182;-78
2024/04/06 08:01:21;;;;;;;3.20;1.02;;;18.00;99.90;;;;;;4955239;28;20026;-78
2024/04/06 08:03:46;;;;;;;3.20;1.85;;;18.20;99.90;;;;;;4950193;28;20529;-78
2024/04/06 08:06:12;;;;;;;6.10;1.35;;;18.40;99.90;;;;;;4970297;28;20026;-78
2024/04/06 08:08:38;;;;;;;2.65;1.25;;;18.50;99.90;;;;;;4970763;28;20034;-78
2024/04/06 08:11:03;;;;;;;2.60;1.40;;;18.60;99.90;;;;;;4968196;28;20109;-78
2024/04/06 08:13:29;;;;;;;2.13;1.25;;;18.90;99.90;;;;;;4976063;28;20037;-78
2024/04/06 08:15:55;;;;;;;1.95;1.30;;;19.00;99.90;;;;;;4972919;28;20516;-78
2024/04/06 08:18:20;;;;;;;2.72;1.00;;;19.20;99.90;;;;;;4974403;28;20083;-78
2024/04/06 08:20:47;;;;;;;2.90;1.00;;;19.10;99.90;;;;;;4975097;28;20034;-79
2024/04/06 08:23:16;;;;;;;2.05;1.08;;;19.10;99.90;;;;;;4970811;28;20396;-79
2024/04/06 08:25:42;;;;;;;4.90;1.05;;;19.40;99.90;;;;;;4980908;28;20392;-79
2024/04/06 08:28:07;;;;;;;1.83;0.90;;;19.70;99.90;;;;;;4954418;28;20078;-79
2024/04/06 08:30:33;;;;;;;1.42;0.93;;;19.70;99.90;;;;;;4969449;28;20043;-78
2024/04/06 08:32:59;;;;;;;2.65;1.13;;;20.00;99.90;;;;;;4963438;28;20081;-77
2024/04/06 08:35:24;;;;;;;3.05;1.20;;;20.20;99.90;;;;;;4953951;28;20080;-78
2024/04/06 08:37:50;;;;;;;1.73;0.80;;;20.30;99.90;;;;;;4956355;28;20058;-77
2024/04/06 08:40:16;;;;;;;2.80;1.10;;;20.50;99.90;;;;;;4980623;28;20126;-77
2024/04/06 08:42:43;;;;;;;3.97;1.25;;;20.60;99.90;;;;;;4958460;28;20031;-78
2024/04/06 08:45:08;;;;;;;1.80;1.05;;;20.80;99.90;;;;;;4977241;28;20049;-77
2024/04/06 08:47:34;;;;;;;3.15;0.95;;;20.80;99.90;;;;;;4983648;28;20099;-77
2024/04/06 08:50:07;;;;;;;2.88;1.00;;;20.70;99.90;;;;;;4979550;28;20037;-78
2024/04/06 08:52:35;;;;;;;1.60;1.10;;;21.00;99.90;;;;;;4986949;28;20385;-78
2024/04/06 08:55:01;;;;;;;4.47;1.75;;;21.10;99.90;;;;;;4975165;28;20631;-78
2024/04/06 08:57:26;;;;;;;3.40;1.45;;;21.20;99.90;;;;;;4970003;28;20158;-77
2024/04/06 08:59:52;;;;;;;1.65;0.80;;;21.40;99.90;;;;;;4966825;28;20034;-78
2024/04/06 09:02:18;;;;;;;2.10;0.90;;;21.40;99.90;;;;;;4964709;28;20061;-77
2024/04/06 09:04:43;;;;;;;3.08;1.15;;;21.50;99.90;;;;;;4985530;28;20077;-77
2024/04/06 09:07:09;;;;;;;2.63;0.88;;;21.60;99.90;;;;;;4982406;28;20034;-78
2024/04/06 09:09:35;;;;;;;5.80;0.85;;;21.80;99.90;;;;;;4967812;28;20022;-78
2024/04/06 09:12:00;;;;;;;2.00;0.85;;;21.70;99.90;;;;;;4965812;28;20019;-77
2024/04/06 09:14:26;;;;;;;3.15;0.95;;;21.80;99.90;;;;;;4954323;28;20023;-78
2024/04/06 09:16:54;;;;;;;2.78;1.20;;;21.80;99.90;;;;;;4987824;28;20488;-78
2024/04/06 09:19:20;;;;;;;2.20;0.95;;;22.40;99.90;;;;;;4959309;28;20507;-78
2024/04/06 09:21:46;;;;;;;4.93;0.98;;;22.30;99.90;;;;;;4956701;28;20033;-78
2024/04/06 09:24:12;;;;;;;1.73;1.10;;;22.40;99.90;;;;;;4957795;28;20034;-79
2024/04/06 09:26:38;;;;;;;2.70;0.90;;;22.60;99.90;;;;;;4972455;28;20507;-79
2024/04/06 09:29:03;;;;;;;4.60;1.27;;;22.70;99.50;;;;;;4967534;28;20034;-79
2024/04/06 09:31:29;;;;;;;6.68;1.63;;;23.10;99.80;;;;;;4958214;28;20066;-79
2024/04/06 09:33:58;;;;;;;2.53;1.13;;;22.90;99.40;;;;;;4956942;28;20035;-79
2024/04/06 09:36:24;;;;;;;6.20;2.10;;;22.90;99.90;;;;;;4957430;28;20035;-81
2024/04/06 09:38:50;;;;;;;2.28;0.90;;;23.10;99.60;;;;;;4959966;28;20023;-82
2024/04/06 09:41:18;;;;;;;2.47;1.13;;;23.40;99.10;;;;;;4966315;28;20619;-81
2024/04/06 09:43:52;;;;;;;3.65;0.70;;;23.30;99.10;;;;;;4972537;28;20110;-81
2024/04/06 09:46:18;;;;;;;1.80;1.00;;;23.50;98.40;;;;;;4984917;28;20034;-81
2024/04/06 09:48:43;;;;;;;2.17;0.98;;;23.50;96.70;;;;;;4979332;28;20072;-81
2024/04/06 09:51:09;;;;;;;2.70;0.95;;;23.70;96.80;;;;;;4958902;28;21882;-80
2024/04/06 09:53:35;;;;;;;4.97;1.25;;;23.70;96.10;;;;;;4974917;28;20441;-81
2024/04/06 09:56:04;;;;;;;3.05;1.20;;;23.70;98.00;;;;;;4988678;28;20495;-81
2024/04/06 09:58:29;;;;;;;3.20;0.95;;;23.90;95.80;;;;;;4976694;28;20040;-82
2024/04/06 10:01:16;;;;;;;1.55;0.80;;;24.10;94.90;;;;;;4974159;28;20038;-82
2024/04/06 10:03:48;;;;;;;1.73;0.80;;;24.30;94.30;;;;;;4965016;28;20033;-82
2024/04/06 10:06:21;;;;;;;2.25;0.90;;;24.30;94.80;;;;;;4989550;28;20045;-83
2024/04/06 10:08:57;;;;;;;1.20;0.80;;;24.50;92.80;;;;;;4956579;28;20493;-83
2024/04/06 10:11:24;;;;;;;2.40;0.95;;;24.60;91.70;;;;;;4966606;28;20515;-83
2024/04/06 10:14:04;;;;;;;1.48;0.80;;;24.70;91.80;;;;;;4984318;28;20093;-83
2024/04/06 10:16:32;;;;;;;1.88;1.00;;;25.00;90.60;;;;;;4959509;28;20519;-84
2024/04/06 10:19:00;;;;;;;3.50;0.77;;;25.20;91.70;;;;;;4972053;28;20030;-84
2024/04/06 10:21:38;;;;;;;5.45;1.38;;;25.20;90.80;;;;;;4974125;28;20035;-84
2024/04/06 10:24:07;;;;;;;5.72;0.98;;;25.60;89.70;;;;;;4960193;28;20026;-83
2024/04/06 10:26:34;;;;;;;1.30;0.70;;;25.70;90.30;;;;;;4974405;28;20042;-84
2024/04/06 10:29:00;;;;;;;1.83;0.90;;;25.50;90.30;;;;;;4956267;28;20106;-84
2024/04/06 10:31:25;;;;;;;3.33;0.73;;;25.80;91.30;;;;;;4976481;28;20118;-84
2024/04/06 10:33:51;;;;;;;1.85;0.70;;;25.50;91.30;;;;;;4977335;28;20034;-85
2024/04/06 10:36:16;;;;;;;1.38;0.88;;;25.80;88.30;;;;;;4989455;28;20018;-84
2024/04/06 10:38:42;;;;;;;2.35;0.70;;;25.60;87.30;;;;;;4982482;28;20100;-85
2024/04/06 10:41:10;;;;;;;4.78;0.80;;;25.70;86.70;;;;;;4981618;28;20144;-85
2024/04/06 10:43:36;;;;;;;1.90;1.25;;;25.70;85.40;;;;;;4973656;28;20044;-84
2024/04/06 10:46:02;;;;;;;2.17;0.90;;;25.80;84.80;;;;;;4978584;28;20035;-84
2024/04/06 10:48:28;;;;;;;2.17;1.00;;;25.70;82.60;;;;;;4965306;28;20050;-87
2024/04/06 10:50:54;;;;;;;1.30;0.82;;;25.60;84.80;;;;;;4976932;28;20563;-87
2024/04/06 10:53:21;;;;;;;4.00;1.52;;;25.50;83.50;;;;;;4995761;28;20116;-86
2024/04/06 10:55:47;;;;;;;2.63;0.98;;;25.70;81.80;;;;;;5014154;28;20048;-83
2024/04/06 10:58:13;;;;;;;1.63;0.93;;;25.70;83.70;;;;;;4968639;28;20038;-81
2024/04/06 11:00:39;;;;;;;3.13;0.82;;;25.80;84.60;;;;;;4974837;28;20035;-80
2024/04/06 11:03:07;;;;;;;4.70;0.90;;;26.10;81.60;;;;;;4982714;28;20481;-81
2024/04/06 11:05:37;;;;;;;2.05;0.80;;;26.30;84.50;;;;;;4968608;28;20085;-81
2024/04/06 11:08:05;;;;;;;2.83;0.85;;;26.50;81.60;;;;;;4987483;28;20042;-83
2024/04/06 11:10:31;;;;;;;2.40;1.27;;;26.60;78.00;;;;;;4971736;28;20027;-85
2024/04/06 11:12:57;;;;;;;2.63;0.80;;;26.60;84.10;;;;;;4967517;28;20122;-85
2024/04/06 11:15:27;;;;;;;1.95;1.00;;;26.80;80.80;;;;;;4971854;28;20030;-86
2024/04/06 11:17:56;;;;;;;4.32;0.80;;;27.00;77.10;;;;;;4969700;28;20562;-85
2024/04/06 11:20:22;;;;;;;1.90;0.90;;;27.20;79.60;;;;;;4958767;28;20503;-85
2024/04/06 11:22:47;;;;;;;3.95;1.00;;;27.20;76.90;;;;;;4956606;28;20061;-85
2024/04/06 11:25:14;;;;;;;1.23;0.90;;;27.30;78.10;;;;;;4973492;28;20516;-86
2024/04/06 11:27:45;;;;;;;1.25;0.93;;;27.30;76.40;;;;;;4976337;28;20039;-86
2024/04/06 11:30:11;;;;;;;1.45;0.80;;;27.30;76.20;;;;;;4965906;28;20030;-83
2024/04/06 11:32:36;;;;;;;4.50;0.88;;;27.50;76.30;;;;;;4958242;28;20100;-86
2024/04/06 11:35:02;;;;;;;3.53;0.85;;;27.60;74.80;;;;;;4969215;28;20481;-86
2024/04/06 11:37:40;;;;;;;3.60;0.88;;;27.70;72.40;;;;;;4954057;28;20049;-86
2024/04/06 11:40:07;;;;;;;1.75;0.82;;;27.80;74.20;;;;;;4967019;28;20432;-84
2024/04/06 11:42:33;;;;;;;1.02;0.80;;;27.60;76.80;;;;;;4967892;28;20421;-84
2024/04/06 11:44:59;;;;;;;3.05;0.90;;;27.50;75.30;;;;;;4950978;28;20040;-85
2024/04/06 11:47:25;;;;;;;3.85;1.05;;;27.70;73.40;;;;;;4974290;28;20030;-84
2024/04/06 11:49:51;;;;;;;4.90;1.17;;;27.60;73.40;;;;;;4944463;28;20092;-83
2024/04/06 11:52:16;;;;;;;1.02;0.65;;;27.80;72.80;;;;;;4958973;28;20942;-84
2024/04/06 11:54:42;;;;;;;2.55;1.00;;;27.70;73.40;;;;;;4959245;28;20400;-84
2024/04/06 11:57:08;;;;;;;4.38;0.80;;;27.80;74.20;;;;;;4959619;28;20030;-84
2024/04/06 11:59:33;;;;;;;3.58;0.90;;;27.90;72.30;;;;;;4987537;28;20026;-84
2024/04/06 12:01:59;;;;;;;3.53;1.00;;;28.10;70.70;;;;;;4981281;28;20062;-83
2024/04/06 12:04:24;;;;;;;3.22;1.08;;;28.20;71.00;;;;;;4966276;28;20026;-83
2024/04/06 12:06:52;;;;;;;4.22;1.27;;;28.30;67.50;;;;;;4959279;28;20515;-83
2024/04/06 12:09:17;;;;;;;4.43;1.20;;;28.10;71.40;;;;;;4971427;28;20113;-84
2024/04/06 12:11:43;;;;;;;3.35;0.98;;;28.10;69.70;;;;;;4956537;28;20130;-84
2024/04/06 12:14:09;;;;;;;3.97;0.95;;;28.30;70.00;;;;;;4978803;28;20038;-84
2024/04/06 12:16:34;;;;;;;3.15;1.02;;;28.40;68.80;;;;;;4999747;28;20551;-84
2024/04/06 12:19:00;;;;;;;1.23;0.88;;;28.50;70.10;;;;;;4987709;28;20030;-83
2024/04/06 12:21:26;;;;;;;2.35;0.98;;;28.60;68.70;;;;;;4990406;28;20042;-84
2024/04/06 12:23:51;;;;;;;1.38;1.10;;;28.70;65.80;;;;;;5007593;28;20027;-83
2024/04/06 12:26:17;;;;;;;2.15;0.90;;;28.80;69.10;;;;;;4985194;28;20383;-83
2024/04/06 12:28:42;;;;;;;1.73;0.85;;;28.80;67.10;;;;;;4992563;28;20023;-84
2024/04/06 12:31:08;;;;;;;1.95;0.70;;;29.10;67.70;;;;;;4988623;28;22145;-85
2024/04/06 12:33:35;;;;;;;2.35;0.85;;;29.00;65.40;;;;;;4967649;28;20058;-84
2024/04/06 12:36:01;;;;;;;2.78;0.80;;;29.10;65.10;;;;;;4989743;28;20034;-84
2024/04/06 12:38:26;;;;;;;4.10;0.77;;;29.20;60.40;;;;;;4969639;28;20061;-84
2024/04/06 12:40:52;;;;;;;0.90;0.70;;;29.20;63.40;;;;;;4970486;28;20061;-83
2024/04/06 12:43:17;;;;;;;1.65;1.17;;;29.20;64.10;;;;;;4956693;28;20550;-84